createdAt,value
2023-01-15T00:00:22.180Z,4.75
2023-01-15T00:02:49.028Z,4.72
2023-01-15T00:05:15.844Z,4.71
2023-01-15T00:07:44.022Z,4.68
2023-01-15T00:10:11.604Z,4.71
2023-01-15T00:12:38.275Z,4.68
2023-01-15T00:15:08.280Z,4.68
2023-01-15T00:17:35.283Z,4.67
2023-01-15T00:20:01.920Z,4.73
2023-01-15T00:22:29.874Z,4.73
2023-01-15T00:25:15.527Z,4.75
2023-01-15T00:27:44.136Z,4.77
2023-01-15T00:30:15.637Z,4.78
2023-01-15T00:32:44.812Z,4.74
2023-01-15T00:35:20.571Z,4.72
2023-01-15T00:37:47.919Z,4.72
2023-01-15T00:40:17.915Z,4.74
2023-01-15T00:42:50.625Z,4.75
2023-01-15T00:45:21.915Z,4.84
2023-01-15T00:47:50.577Z,4.88
2023-01-15T00:50:20.409Z,4.83
2023-01-15T00:52:47.212Z,4.82
2023-01-15T00:55:13.899Z,4.80
2023-01-15T00:57:49.418Z,4.82
2023-01-15T01:00:19.345Z,4.78
2023-01-15T01:02:46.210Z,4.79
2023-01-15T01:05:12.889Z,4.81
2023-01-15T01:07:41.631Z,4.73
2023-01-15T01:10:18.885Z,4.66
2023-01-15T01:12:56.860Z,4.62
2023-01-15T01:15:25.710Z,4.66
2023-01-15T01:17:52.468Z,4.64
2023-01-15T01:20:19.576Z,4.65
2023-01-15T01:22:49.627Z,4.63
2023-01-15T01:25:19.416Z,4.60
2023-01-15T01:27:47.636Z,4.58
2023-01-15T01:30:15.360Z,4.65
2023-01-15T01:32:46.468Z,4.64
2023-01-15T01:35:13.135Z,4.55
2023-01-15T01:37:39.898Z,4.65
2023-01-15T01:40:12.848Z,4.63
2023-01-15T01:42:41.665Z,4.66
2023-01-15T01:45:19.027Z,4.69
2023-01-15T01:47:51.802Z,4.73
2023-01-15T01:50:19.389Z,4.72
2023-01-15T01:52:57.526Z,4.78
2023-01-15T01:55:29.697Z,4.83
2023-01-15T01:58:03.018Z,4.85
2023-01-15T02:00:35.523Z,4.85
2023-01-15T02:03:10.285Z,4.82
2023-01-15T02:05:52.007Z,4.79
2023-01-15T02:08:19.010Z,4.85
2023-01-15T02:10:59.638Z,4.83
2023-01-15T02:13:38.683Z,4.88
2023-01-15T02:16:52.916Z,4.90
2023-01-15T02:19:55.338Z,4.94
2023-01-15T02:22:43.573Z,4.88
2023-01-15T02:26:18.283Z,4.92
2023-01-15T02:28:51.442Z,4.93
2023-01-15T02:31:34.382Z,4.88
2023-01-15T02:34:18.487Z,4.85
2023-01-15T02:36:57.005Z,4.88
2023-01-15T02:39:28.579Z,4.98
2023-01-15T02:42:04.071Z,4.91
2023-01-15T02:44:41.486Z,4.90
2023-01-15T02:47:11.686Z,4.84
2023-01-15T02:49:43.782Z,4.85
2023-01-15T02:52:22.577Z,4.79
2023-01-15T02:55:04.141Z,4.86
2023-01-15T02:57:39.740Z,4.86
2023-01-15T03:00:15.146Z,4.84
2023-01-15T03:02:54.005Z,4.88
2023-01-15T03:05:29.171Z,4.90
2023-01-15T03:08:04.810Z,4.88
2023-01-15T03:10:54.246Z,4.85
2023-01-15T03:13:42.511Z,4.86
2023-01-15T03:16:35.766Z,4.82
2023-01-15T03:19:57.531Z,4.85
2023-01-15T03:22:52.074Z,4.90
2023-01-15T03:25:31.482Z,4.85
2023-01-15T03:28:07.011Z,4.90
2023-01-15T03:30:34.626Z,4.93
2023-01-15T03:33:01.559Z,4.93
2023-01-15T03:35:59.192Z,4.98
2023-01-15T03:38:36.166Z,5.03
2023-01-15T03:41:33.790Z,5.08
2023-01-15T03:45:15.635Z,5.07
2023-01-15T03:48:22.855Z,5.01
2023-01-15T03:51:26.255Z,4.88
2023-01-15T03:54:03.088Z,4.79
2023-01-15T03:56:55.372Z,4.83
2023-01-15T03:59:44.028Z,4.84
2023-01-15T04:02:18.005Z,4.85
2023-01-15T04:04:48.296Z,4.79
2023-01-15T04:07:18.429Z,4.75
2023-01-15T04:09:45.417Z,4.75
2023-01-15T04:12:15.033Z,4.77
2023-01-15T04:14:42.020Z,4.73
2023-01-15T04:17:09.193Z,4.66
2023-01-15T04:19:36.303Z,4.65
2023-01-15T04:22:03.285Z,4.63
2023-01-15T04:24:30.080Z,4.71
2023-01-15T04:26:56.799Z,4.71
2023-01-15T04:29:23.764Z,4.65
2023-01-15T04:31:53.577Z,4.59
2023-01-15T04:34:20.264Z,4.57
2023-01-15T04:36:48.030Z,4.58
2023-01-15T04:39:15.024Z,4.64
2023-01-15T04:42:01.645Z,4.69
2023-01-15T04:44:29.302Z,4.65
2023-01-15T04:46:57.524Z,4.69
2023-01-15T04:49:24.207Z,4.57
2023-01-15T04:51:53.766Z,4.54
2023-01-15T04:54:22.512Z,4.51
2023-01-15T04:56:54.583Z,4.57
2023-01-15T04:59:27.151Z,4.62
2023-01-15T05:02:03.931Z,4.62
2023-01-15T05:04:33.506Z,4.64
2023-01-15T05:07:05.280Z,4.65
2023-01-15T05:09:32.512Z,4.73
2023-01-15T05:11:59.309Z,4.72
2023-01-15T05:14:26.122Z,4.72
2023-01-15T05:16:52.860Z,4.83
2023-01-15T05:19:19.838Z,4.80
2023-01-15T05:21:46.675Z,4.72
2023-01-15T05:24:17.631Z,4.72
2023-01-15T05:26:45.496Z,4.74
2023-01-15T05:29:13.662Z,4.68
2023-01-15T05:31:45.187Z,4.80
2023-01-15T05:34:13.368Z,4.86
2023-01-15T05:36:41.223Z,4.78
2023-01-15T05:39:07.981Z,4.74
2023-01-15T05:41:50.349Z,4.69
2023-01-15T05:44:26.567Z,4.67
2023-01-15T05:47:00.282Z,4.62
2023-01-15T05:49:31.184Z,4.59
2023-01-15T05:52:00.709Z,4.63
2023-01-15T05:54:35.002Z,4.58
2023-01-15T05:57:04.849Z,4.56
2023-01-15T05:59:33.464Z,4.48
2023-01-15T06:02:00.481Z,4.53
2023-01-15T06:04:27.394Z,4.55
2023-01-15T06:06:56.491Z,4.59
2023-01-15T06:09:24.798Z,4.54
2023-01-15T06:11:54.050Z,4.57
2023-01-15T06:14:23.623Z,4.59
2023-01-15T06:16:50.719Z,4.59
2023-01-15T06:19:20.752Z,4.71
2023-01-15T06:21:49.116Z,4.71
2023-01-15T06:24:17.297Z,4.75
2023-01-15T06:26:44.231Z,4.72
2023-01-15T06:29:13.377Z,4.70
2023-01-15T06:31:42.754Z,4.77
2023-01-15T06:34:09.410Z,4.82
2023-01-15T06:36:36.483Z,4.86
2023-01-15T06:39:08.625Z,4.75
2023-01-15T06:41:53.815Z,4.75
2023-01-15T06:44:41.083Z,4.77
2023-01-15T06:47:20.773Z,4.85
2023-01-15T06:49:57.807Z,4.90
2023-01-15T06:52:28.509Z,4.89
2023-01-15T06:54:55.523Z,4.90
2023-01-15T06:57:22.588Z,4.88
2023-01-15T06:59:50.504Z,4.83
2023-01-15T07:02:18.214Z,4.82
2023-01-15T07:04:46.908Z,4.81
2023-01-15T07:07:23.122Z,4.79
2023-01-15T07:09:50.599Z,4.79
2023-01-15T07:12:20.019Z,4.75
2023-01-15T07:14:47.657Z,4.66
2023-01-15T07:17:17.472Z,4.75
2023-01-15T07:19:46.863Z,4.82
2023-01-15T07:22:18.631Z,4.79
2023-01-15T07:24:45.341Z,4.71
2023-01-15T07:27:12.071Z,4.73
2023-01-15T07:29:53.842Z,4.71
2023-01-15T07:32:20.581Z,4.74
2023-01-15T07:34:49.737Z,4.82
2023-01-15T07:37:16.629Z,4.73
2023-01-15T08:43:48.260Z,5.09
2023-01-15T08:46:15.154Z,5.11
2023-01-15T08:48:41.916Z,5.11
2023-01-15T08:51:14.693Z,5.21
2023-01-15T08:53:41.811Z,5.15
2023-01-15T08:56:20.600Z,5.19
2023-01-15T08:58:48.712Z,5.15
2023-01-15T09:04:00.893Z,5.21
2023-01-15T09:45:25.885Z,5.34
2023-01-15T09:48:16.233Z,5.35
2023-01-15T09:51:03.043Z,5.37
2023-01-15T10:46:38.044Z,5.86
2023-01-15T10:49:15.925Z,6.00
2023-01-15T10:51:54.655Z,6.20
2023-01-15T10:55:22.910Z,5.92
2023-01-15T10:58:10.691Z,6.04
2023-01-15T11:00:42.470Z,5.97
2023-01-15T11:03:39.514Z,6.00
2023-01-15T11:06:16.657Z,6.06
2023-01-15T11:09:09.206Z,6.05
2023-01-15T11:12:00.179Z,6.04
2023-01-15T11:15:01.697Z,5.98
2023-01-15T11:17:59.735Z,5.88
2023-01-15T11:20:50.902Z,5.81
2023-01-15T11:23:23.166Z,5.78
2023-01-15T11:25:59.692Z,5.70
2023-01-15T11:28:43.182Z,5.83
2023-01-15T11:31:13.694Z,5.85
2023-01-15T11:34:01.282Z,5.77
2023-01-15T11:36:31.638Z,5.65
2023-01-15T11:38:59.564Z,5.70
2023-01-15T11:41:55.802Z,5.66
2023-01-15T11:44:42.415Z,5.66
2023-01-15T11:47:37.845Z,5.58
2023-01-15T11:50:40.620Z,5.46
2023-01-15T12:15:54.998Z,3.46
2023-01-15T12:18:56.974Z,3.65
2023-01-15T13:13:43.913Z,5.19
2023-01-15T13:16:34.065Z,5.16
2023-01-15T14:57:07.570Z,3.50
2023-01-15T16:03:33.524Z,3.36
2023-01-15T16:06:08.058Z,3.36
2023-01-15T16:08:36.266Z,3.39
2023-01-15T16:11:13.962Z,3.41
2023-01-15T16:13:48.018Z,3.41
2023-01-15T16:16:19.103Z,3.41
2023-01-15T16:18:52.153Z,3.43
2023-01-15T16:21:44.613Z,3.45
2023-01-15T16:24:29.472Z,3.41
2023-01-15T16:27:11.197Z,3.40
2023-01-15T16:29:38.278Z,3.41
2023-01-15T16:32:22.231Z,3.44
2023-01-15T16:34:50.233Z,3.41
2023-01-15T16:37:30.965Z,3.41
2023-01-15T16:40:03.754Z,3.39
2023-01-15T16:42:40.061Z,3.35
2023-01-15T16:45:26.006Z,3.29
2023-01-15T16:48:38.232Z,3.13
2023-01-15T16:51:36.218Z,2.97
2023-01-15T16:54:29.055Z,2.87
2023-01-15T16:57:26.848Z,2.80
2023-01-15T17:00:07.615Z,2.76
2023-01-15T17:02:47.875Z,2.79
2023-01-15T17:05:29.243Z,2.86
2023-01-15T17:07:57.343Z,2.92
2023-01-15T17:10:29.674Z,2.99
2023-01-15T17:12:56.492Z,3.06
2023-01-15T17:15:26.098Z,3.04
2023-01-15T17:17:56.374Z,3.07
2023-01-15T17:20:27.948Z,3.09
2023-01-15T17:22:56.348Z,3.15
2023-01-15T17:25:30.815Z,3.25
2023-01-15T17:28:00.500Z,3.28
2023-01-15T17:30:33.426Z,3.40
2023-01-15T17:33:10.176Z,3.47
2023-01-15T18:33:56.117Z,3.66
2023-01-15T19:34:33.598Z,3.36
2023-01-15T22:24:32.401Z,3.10
2023-01-15T22:51:05.304Z,2.82
2023-01-15T23:15:14.203Z,2.68
2023-01-15T23:25:46.024Z,2.57
2023-01-15T23:28:12.608Z,2.53
2023-01-15T23:30:42.374Z,2.58
2023-01-15T23:33:09.651Z,2.65
2023-01-15T23:35:36.409Z,2.62
2023-01-15T23:38:03.170Z,2.60
2023-01-15T23:40:32.521Z,2.69
2023-01-15T23:43:17.652Z,2.69
2023-01-15T23:46:02.903Z,2.82
2023-01-15T23:48:32.936Z,2.83
2023-01-15T23:50:59.576Z,2.75
2023-01-15T23:53:26.297Z,2.85
2023-01-15T23:55:53.173Z,2.92
2023-01-15T23:58:19.886Z,2.95
